• Join FlightAware (Why Join?)
  • Login
  • US Flag 
12:18PM EDT


 

Airport Tracker/Info


-or-


 

Live Flight TrackerFlight Track Log ✈ DAL1029 ✈ 31-Aug-2013 ✈ KMSP - KATL

Flight Track Log - Related Links

Times and Time Zones

All times are in EDT time to prevent confusion due to time zone crossing. See the DAL1029 flight status page for this flight to view local times or setup timezone preferences in your user account.

Time Position Orientation Groundspeed Altitude Reporting Facility
EDT Latitude Longitude Course Direction KTS MPH feet Rate Location/Type
11:42AM 44.8364 -93.1389 125° Southeast 209 241 3,400  Level Minneapolis Center
11:43AM 44.5843 -92.9393 145° Southeast  Level Estimated
11:43AM 44.7778 -93.0736 142° Southeast 267 307 5,900  Level Minneapolis Center
11:44AM 44.4850 -92.8458 137° Southeast  Level Estimated
11:44AM 44.7108 -93.0000 142° Southeast 292 336 8,800  Level Minneapolis Center
11:45AM 44.3855 -92.7526 115° Southeast  Level Estimated
11:45AM 44.6419 -92.9242 142° Southeast 317 365 10,900  Level Minneapolis Center
11:46AM 44.2860 -92.6598 120° Southeast  Level Estimated
11:46AM 44.5392 -92.8136 143° Southeast 391 450 13,100  Level Minneapolis Center
11:47AM 44.1893 -92.5699 125° Southeast  Level Estimated
11:47AM 44.4542 -92.7103 139° Southeast 403 464 16,400  Level Minneapolis Center
11:48AM 44.3939 -92.5706 121° Southeast 419 482 18,300 1,980 Climbing Minneapolis Center
11:49AM 44.3175 -92.3933 121° Southeast 444 511 20,500 1,920 Climbing Minneapolis Center
11:50AM 44.2506 -92.2397 121° Southeast 461 531 22,300 1,680 Climbing Minneapolis Center
11:51AM 44.1819 -92.0825 121° Southeast 474 545 24,000 1,620 Climbing Minneapolis Center
11:52AM 44.0708 -91.9253 134° Southeast 477 549 26,000 1,500 Climbing Minneapolis Center
11:53AM 43.9508 -91.8375 152° Southeast 483 556 27,500 1,260 Climbing Minneapolis Center
11:55AM 43.8319 -91.7456 151° Southeast 488 562 28,900 1,560 Climbing Minneapolis Center
11:56AM 43.6911 -91.6261 148° Southeast 495 570 31,100 1,920 Climbing Minneapolis Center
11:57AM 43.5553 -91.5089 148° Southeast 489 563 33,000 1,560 Climbing Minneapolis Center
11:58AM 43.4403 -91.4133 149° Southeast 487 560 34,400 1,140 Climbing Minneapolis Center
11:59AM 43.3264 -91.3175 149° Southeast 484 557 35,400 1,020 Climbing Minneapolis Center
12:00PM 43.2111 -91.2231 149° Southeast 484 557 36,600 960 Climbing Minneapolis Center
12:01PM 43.0956 -91.1278 149° Southeast 485 558 37,500 720 Climbing Minneapolis Center
12:02PM 42.9792 -91.0317 149° Southeast 488 562 38,100 540 Climbing Minneapolis Center
12:03PM 42.8378 -90.9178 149° Southeast 490 564 38,700 420 Climbing Minneapolis Center
12:04PM 42.7206 -90.8217 149° Southeast 492 566 39,000 120 Climbing Minneapolis Center
12:05PM 42.6036 -90.7297 150° Southeast 490 564 39,000  Level Minneapolis Center
12:06PM 42.4897 -90.6364 149° Southeast 484 557 39,000  Level Minneapolis Center
12:07PM 42.3300 -90.5083 149° Southeast 486 559 39,000  Level Chicago Center
12:08PM 42.2158 -90.4169 149° Southeast 483 556 39,000  Level Chicago Center
12:09PM 42.0761 -90.3058 149° Southeast 489 563 39,000  Level Chicago Center
12:10PM 41.9594 -90.2131 149° Southeast 492 566 39,000  Level Chicago Center
12:11PM 41.8431 -90.1219 150° Southeast 491 565 39,000  Level Chicago Center
12:12PM 41.7214 -90.0253 149° Southeast 492 566 39,000  Level Chicago Center
12:14PM 41.6025 -89.9328 150° Southeast 493 567 39,000  Level Chicago Center
12:15PM 41.4853 -89.8403 149° Southeast 490 564 39,000  Level Chicago Center
12:16PM 41.3672 -89.7486 150° Southeast 489 563 39,000  Level Chicago Center
12:17PM 41.2464 -89.6744 155° Southeast 477 549 39,000  Level Chicago Center
12:18PM 41.0917 -89.6122 163° South 481 554 39,000  Level Chicago Center
12:19PM 40.9628 -89.5667 165° South 480 552 39,000  Level Chicago Center
12:20PM 40.8339 -89.5156 163° South 478 550 39,000  Level Chicago Center
12:21PM 40.7028 -89.4658 164° South 481 554 39,000  Level Chicago Center
12:22PM 40.5731 -89.4172 164° South 479 551 39,000  Level Chicago Center
12:23PM 40.4444 -89.3703 164° South 478 550 39,000  Level Chicago Center
12:24PM 40.3175 -89.3228 164° South 474 545 39,000  Level Chicago Center
12:25PM 40.1892 -89.2744 164° South 477 549 39,000  Level Chicago Center
12:26PM 40.0608 -89.2269 164° South 479 551 39,000  Level Chicago Center
12:27PM 39.9325 -89.1800 164° South 476 548 39,000  Level Kansas City Center
12:28PM 39.8047 -89.1342 165° South 477 549 39,000  Level Kansas City Center
12:29PM 39.6514 -89.0783 164° South 476 548 39,000  Level Kansas City Center
12:30PM 39.5231 -89.0328 165° South 477 549 39,000  Level Kansas City Center
12:31PM 39.3950 -88.9858 164° South 475 547 39,000  Level Kansas City Center
12:32PM 39.2678 -88.9408 165° South 473 544 39,000  Level Kansas City Center
12:33PM 39.1436 -88.8972 165° South 466 536 39,000  Level Kansas City Center
12:34PM 39.0156 -88.8525 165° South 471 542 39,000  Level Kansas City Center
12:35PM 38.8911 -88.8072 164° South 468 539 39,000  Level Kansas City Center
12:36PM 38.7656 -88.7625 164° South 468 539 39,000  Level Kansas City Center
12:37PM 38.6136 -88.7075 164° South 469 540 39,000  Level Kansas City Center
12:38PM 38.4842 -88.6628 165° South 474 545 39,000  Level Kansas City Center
12:39PM 38.3525 -88.6150 164° South 470 541 39,000  Level Kansas City Center
12:40PM 38.2253 -88.5725 165° South 470 541 39,000  Level Kansas City Center
12:41PM 38.0983 -88.5286 165° South 471 542 39,000  Level Kansas City Center
12:42PM 37.9725 -88.4839 164° South 471 542 39,000  Level Kansas City Center
12:43PM 37.8661 -88.3936 146° Southeast 468 539 39,000  Level Kansas City Center
12:44PM 37.7606 -88.2914 143° Southeast 474 545 39,000  Level Kansas City Center
12:45PM 37.6594 -88.1878 141° Southeast 472 543 39,000  Level Kansas City Center
12:46PM 37.5358 -88.0631 141° Southeast 473 544 39,000  Level Kansas City Center
12:47PM 37.4333 -87.9606 142° Southeast 471 542 39,000  Level Kansas City Center
12:48PM 37.3311 -87.8583 141° Southeast 471 542 39,000  Level Kansas City Center
12:49PM 37.2281 -87.7575 142° Southeast 470 541 39,000  Level Kansas City Center
12:51PM 37.1228 -87.6594 143° Southeast 471 542 39,000  Level Kansas City Center
12:52PM 37.0175 -87.5636 144° Southeast 469 540 39,000  Level Kansas City Center
12:53PM 36.8850 -87.4414 144° Southeast 477 549 39,000 -120 Level Memphis Center
12:54PM 36.7786 -87.3469 145° Southeast 477 549 38,800 -900 Descending Memphis Center
12:55PM 36.6742 -87.2500 143° Southeast 472 543 37,200 -1,500 Descending Memphis Center
12:56PM 36.5653 -87.1533 145° Southeast 477 549 35,900 -1,140 Descending Memphis Center
12:57PM 36.4608 -87.0594 144° Southeast 477 549 35,000 -1,200 Descending Memphis Center
12:58PM 36.3453 -86.9533 144° Southeast 482 555 33,500 -1,440 Descending Memphis Center
12:59PM 36.2319 -86.8553 145° Southeast 501 577 32,200 -1,200 Descending Memphis Center
01:00PM 36.1208 -86.7547 144° Southeast 510 587 31,100 -600 Descending Memphis Center
01:01PM 36.0117 -86.6567 144° Southeast 498 573 31,000 -60 Descending Memphis Center
01:02PM 35.9003 -86.5567 144° Southeast 498 573 31,000  Level Memphis Center
01:04PM 35.6900 -86.3733 145° Southeast 490 564 31,000  Level Atlanta Center
01:05PM 35.5831 -86.2783 144° Southeast 482 555 31,000  Level Atlanta Center
01:06PM 35.4722 -86.1833 145° Southeast 487 560 31,000 -240 Level Atlanta Center
01:07PM 35.3633 -86.0864 144° Southeast 487 560 30,600 -900 Descending Atlanta Center
01:08PM 35.2542 -85.9922 145° Southeast 487 560 29,300 -1,380 Descending Atlanta Center
01:09PM 35.1347 -85.8853 144° Southeast 487 560 27,900 -1,380 Descending Atlanta Center
01:10PM 35.0214 -85.7939 147° Southeast 487 560 26,600 -1,320 Descending Atlanta Center
01:11PM 34.9081 -85.7028 147° Southeast 487 560 25,300 -1,320 Descending Atlanta Center
01:12PM 34.7944 -85.6144 147° Southeast 487 560 24,000 -660 Descending Atlanta Center
01:13PM 34.6786 -85.5239 147° Southeast 487 560 24,000 -300 Level Atlanta Center
01:14PM 34.5669 -85.4364 147° Southeast 487 560 23,400 -780 Descending Atlanta Center
01:15PM 34.4700 -85.3389 140° Southeast 475 547 22,500 -1,380 Descending Atlanta Center
01:16PM 34.3997 -85.2522 134° Southeast 459 528 20,700 -2,100 Descending Atlanta Center
01:17PM 34.3194 -85.1303 129° Southeast 425 489 18,300 -2,400 Descending Atlanta Center
01:18PM 34.2453 -85.0214 129° Southeast 420 483 15,900 -1,920 Descending Atlanta Center
01:19PM 34.1667 -84.9200 133° Southeast 420 483 14,500 -1,080 Descending Atlanta Center
01:20PM 34.0733 -84.8464 147° Southeast 408 470 13,800 -1,200 Descending Atlanta Center
01:21PM 33.9758 -84.7678 146° Southeast 397 457 12,100 -900 Descending Atlanta Center
01:22PM 33.8925 -84.7069 149° Southeast 364 419 12,000 -60 Descending Atlanta Center
01:23PM 33.8261 -84.6589 149° Southeast 323 372 12,000  Level Atlanta Center
01:24PM 33.7533 -84.6008 146° Southeast 316 364 12,000 -540 Level Atlanta Center
01:25PM 33.7328 -84.5033 104° East 283 326 11,000 -1,260 Descending Atlanta Center
01:26PM 33.7311 -84.4036 91° East 283 326 9,500 -1,380 Descending Atlanta Center
01:27PM 33.7314 -84.3036 90° East 288 331 8,300 -900 Descending Atlanta Center
01:28PM 33.7333 -84.1833 89° East 249 287 7,400 -900 Descending Atlanta TRACON
01:29PM 33.7333 -84.1000 90° East 235 270 6,300 -1,200 Descending Atlanta TRACON
01:30PM 33.7333 -84.0167 90° East 232 267 5,000 -720 Descending Atlanta TRACON
01:31PM 33.7000 -83.9833 140° Southeast 249 287 5,000 -60 Level Atlanta TRACON
01:32PM 33.6667 -84.0500 239° Southwest 227 261 4,900 -60 Descending Atlanta TRACON
01:33PM 33.6500 -84.1167 253° West 229 264 4,900 -300 Level Atlanta TRACON
01:34PM 33.6500 -84.2000 270° West 225 259 4,300 -900 Descending Atlanta TRACON
01:35PM 33.6500 -84.2667 270° West 198 228 3,200 -1,020 Descending Atlanta TRACON
01:36PM 33.6500 -84.3333 270° West 173 199 2,300 -900 Descending Atlanta TRACON
01:37PM 33.6500 -84.3833 270° West 147 169 1,500 -840 Descending Atlanta TRACON